Salt Flat, TX (79847)

8:38 AM MDT on May 23, 2015 (GMT -0600)
APRSWXNET | | Change Station
CLOSE
Current Station
Personal Weather Station
Location: Salt Flat, TX
Elevation: 3694 ft
Nearby Weather Stations

Elev 3694 ft 31.73 °N, 104.93 °W | Updated 35 minutes ago

Clear
Clear
64 °F
Feels Like 64 °F
N
0
Wind Variable Wind from ENE
Gusts 0.0 mph

Today
High -- | Low -- °F
--% Chance of Precip.
Yesterday
High -- | Low -- °F
Precip. -- in
5:59 AM 7:55 PM
Waxing Crescent, 30% visible
Pressure 29.91 in
Visibility 9.0 miles
Clouds Clear
Dew Point 50 °F
Humidity 61%
Rainfall in
Snow Depth Not available.
UV 2 out of 12
Pollen 6.20 out of 12
Air Quality Not available.
Flu Activity Sporadic
METAR KGDP 231351Z AUTO 24009KT 9SM CLR 14/08 A3008 RMK AO2 SLP128 T01440083 $

More Conditions Fewer Conditions

Pressure 29.91 in
Visibility 9.0 miles
Clouds Clear
Dew Point 50 °F
Humidity 61%
Rainfall in
Snow Depth Not available.
UV 2 out of 12
Pollen 6.20 out of 12
Air Quality Not available.
Flu Activity Sporadic
METAR KGDP 231351Z AUTO 24009KT 9SM CLR 14/08 A3008 RMK AO2 SLP128 T01440083 $

More Conditions Fewer Conditions

10-Day Weather Forecast

Almanac

Astronomy

May. 23, 2015 Rise Set
Actual Time
Civil Twilight
Nautical Twilight
Astronomical Twilight
Moon
Length of Visible Light
Length of Day
Tomorrow will be .
, % of the Moon is Illuminated

Today's Extremes

State Highs State Lows

Community

WunderPhotos

Upload Photos

1,823,477 photos uploaded!

WunderBlogs® & News

Nearby

Air Quality

  Air Quality AQ Index Pollutant
Not available.

Snow Depth

Station Depth Elevation

Earthquake Activity

City Distance Mag. Time & Date
Minimum magnitude displayed is 2.5.

Coastal Water Temperatures

Place Temperature

Stations

Nearby Weather Stations

Station Location Temp. Windchill Dew Point Humidity Wind Precip. Elev Updated Type